| time (UTC) | temp C | wind direction | speed KPH | gust KPH | rain 1hr cm | rain 24hr cm | rain mn cm | humidity % | barometer mb |
| 20260508060243 | 9 | 227 | 6.4 | 14.5 | 0.00 | 0.00 | 0.00 | 81 | 1017.3 |
| 20260508055743 | 9 | 234 | 6.4 | 14.5 | 0.00 | 0.00 | 0.00 | 81 | 1017.2 |
| 20260508055249 | 10 | 191 | 6.4 | 17.7 | 0.00 | 0.00 | 0.00 | 80 | 1017.2 |
| 20260508055243 | 9 | 219 | 6.4 | 17.7 | 0.00 | 0.00 | 0.00 | 81 | 1017.2 |
| 20260508054856 | 10 | 219 | 6.4 | 19.3 | 0.00 | 0.00 | 0.00 | 80 | 1017.2 |
| 20260508053747 | 10 | 263 | 4.8 | 14.5 | 0.00 | 0.00 | 0.00 | 79 | 1017.2 |
| 20260508053742 | 10 | 246 | 4.8 | 19.3 | 0.00 | 0.00 | 0.00 | 80 | 1017.3 |
| 20260508053241 | 10 | 277 | 4.8 | 14.5 | 0.00 | 0.00 | 0.00 | 79 | 1017.2 |
| 20260508052855 | 10 | 297 | 4.8 | 14.5 | 0.00 | 0.00 | 0.00 | 79 | 1017.2 |
| 20260508051742 | 10 | 211 | 4.8 | 12.9 | 0.00 | 0.00 | 0.00 | 79 | 1017.2 |
| 20260508051242 | 10 | 222 | 4.8 | 16.1 | 0.00 | 0.00 | 0.00 | 78 | 1017.2 |
| 20260508050742 | 10 | 207 | 4.8 | 16.1 | 0.00 | 0.00 | 0.00 | 78 | 1017.2 |
| 20260508050238 | 10 | 220 | 4.8 | 17.7 | 0.00 | 0.00 | 0.00 | 77 | 1017.1 |
| 20260508045740 | 10 | 257 | 4.8 | 17.7 | 0.00 | 0.00 | 0.00 | 77 | 1017.0 |
| 20260508045240 | 10 | 223 | 4.8 | 16.1 | 0.00 | 0.00 | 0.00 | 77 | 1017.0 |
| 20260508044743 | 11 | 215 | 3.2 | 11.3 | 0.00 | 0.00 | 0.00 | 76 | 1017.0 |
| 20260508044739 | 10 | 215 | 4.8 | 11.3 | 0.00 | 0.00 | 0.00 | 76 | 1017.0 |
| 20260508043739 | 11 | 310 | 3.2 | 11.3 | 0.00 | 0.00 | 0.00 | 76 | 1017.1 |
| 20260508043239 | 11 | 243 | 3.2 | 11.3 | 0.00 | 0.00 | 0.00 | 75 | 1017.1 |
| 20260508042738 | 11 | 254 | 3.2 | 11.3 | 0.00 | 0.00 | 0.00 | 75 | 1017.0 |
| 20260508042239 | 11 | 236 | 3.2 | 9.7 | 0.00 | 0.00 | 0.00 | 75 | 1017.1 |
| 20260508041740 | 11 | 257 | 3.2 | 8.0 | 0.00 | 0.00 | 0.00 | 74 | 1017.1 |
| 20260508041237 | 11 | 259 | 3.2 | 8.0 | 0.00 | 0.00 | 0.00 | 74 | 1017.1 |
| 20260508040736 | 11 | 240 | 3.2 | 12.9 | 0.00 | 0.00 | 0.00 | 74 | 1017.0 |
| 20260508040237 | 12 | 238 | 3.2 | 12.9 | 0.00 | 0.00 | 0.00 | 73 | 1017.0 |
| 20260508035736 | 12 | 255 | 1.6 | 8.0 | 0.00 | 0.00 | 0.00 | 73 | 1017.0 |
| 20260508035238 | 12 | 242 | 3.2 | 14.5 | 0.00 | 0.00 | 0.00 | 72 | 1016.8 |
| 20260508034737 | 12 | 250 | 4.8 | 14.5 | 0.00 | 0.00 | 0.00 | 71 | 1016.7 |
| 20260508034238 | 12 | 228 | 4.8 | 14.5 | 0.00 | 0.00 | 0.00 | 70 | 1016.7 |
| 20260508033738 | 13 | 224 | 6.4 | 16.1 | 0.00 | 0.00 | 0.00 | 69 | 1016.6 |
| 20260508033238 | 13 | 211 | 8.0 | 16.1 | 0.00 | 0.00 | 0.00 | 68 | 1016.4 |
| 20260508032736 | 13 | 226 | 6.4 | 14.5 | 0.00 | 0.00 | 0.00 | 68 | 1016.4 |
| 20260508032235 | 13 | 261 | 6.4 | 14.5 | 0.00 | 0.00 | 0.00 | 67 | 1016.3 |
| 20260508031735 | 13 | 212 | 8.0 | 14.5 | 0.00 | 0.00 | 0.00 | 66 | 1016.3 |
| 20260508031236 | 13 | 227 | 6.4 | 12.9 | 0.00 | 0.00 | 0.00 | 66 | 1016.2 |
| 20260508030736 | 14 | 218 | 3.2 | 11.3 | 0.00 | 0.00 | 0.00 | 66 | 1016.2 |
| 20260508030239 | 15 | 238 | 3.2 | 14.5 | 0.00 | 0.00 | 0.00 | 64 | 1016.1 |
| 20260508030235 | 14 | 217 | 1.6 | 8.0 | 0.00 | 0.00 | 0.00 | 65 | 1016.1 |
| 20260508025240 | 15 | 225 | 3.2 | 12.9 | 0.00 | 0.00 | 0.00 | 61 | 1016.2 |
| 20260508025233 | 15 | 235 | 4.8 | 14.5 | 0.00 | 0.00 | 0.00 | 64 | 1016.2 |
| 20260508024733 | 15 | 217 | 3.2 | 12.9 | 0.00 | 0.00 | 0.00 | 62 | 1016.2 |
| 20260508023733 | 15 | 195 | 3.2 | 9.7 | 0.00 | 0.00 | 0.00 | 60 | 1016.2 |
| 20260508023233 | 16 | 246 | 3.2 | 11.3 | 0.00 | 0.00 | 0.00 | 59 | 1016.2 |
| 20260508022734 | 16 | 240 | 3.2 | 11.3 | 0.00 | 0.00 | 0.00 | 59 | 1016.2 |
| 20260508022237 | 16 | 241 | 3.2 | 11.3 | 0.00 | 0.00 | 0.00 | 60 | 1016.2 |
| 20260508022233 | 16 | 279 | 4.8 | 11.3 | 0.00 | 0.00 | 0.00 | 59 | 1016.2 |
| 20260508021233 | 16 | 303 | 4.8 | 14.5 | 0.00 | 0.00 | 0.00 | 60 | 1016.2 |
| 20260508020733 | 16 | 296 | 4.8 | 14.5 | 0.00 | 0.00 | 0.00 | 58 | 1016.2 |
| 20260508020234 | 17 | 250 | 3.2 | 12.9 | 0.00 | 0.00 | 0.00 | 59 | 1016.1 |
| 20260508015734 | 17 | 271 | 4.8 | 14.5 | 0.00 | 0.00 | 0.00 | 60 | 1016.1 |
| 20260508015238 | 17 | 242 | 3.2 | 14.5 | 0.00 | 0.00 | 0.00 | 60 | 1016.0 |
| 20260508015234 | 17 | 248 | 3.2 | 14.5 | 0.00 | 0.00 | 0.00 | 60 | 1016.1 |
| 20260508014233 | 17 | 215 | 3.2 | 14.5 | 0.00 | 0.00 | 0.00 | 60 | 1016.1 |
| 20260508013732 | 17 | 203 | 4.8 | 14.5 | 0.00 | 0.00 | 0.00 | 60 | 1016.1 |
| 20260508013232 | 18 | 240 | 6.4 | 14.5 | 0.00 | 0.00 | 0.00 | 57 | 1016.0 |
| 20260508012733 | 18 | 221 | 6.4 | 14.5 | 0.00 | 0.00 | 0.00 | 57 | 1016.0 |
| 20260508012233 | 18 | 232 | 6.4 | 16.1 | 0.00 | 0.00 | 0.00 | 57 | 1016.1 |
| 20260508011734 | 18 | 148 | 4.8 | 16.1 | 0.00 | 0.00 | 0.00 | 56 | 1016.2 |
| 20260508011232 | 18 | 309 | 6.4 | 14.5 | 0.00 | 0.00 | 0.00 | 57 | 1016.3 |
| 20260508010734 | 19 | 194 | 8.0 | 16.1 | 0.00 | 0.00 | 0.00 | 57 | 1016.3 |
| 20260508010232 | 19 | 214 | 8.0 | 17.7 | 0.00 | 0.00 | 0.00 | 56 | 1016.4 |
| 20260508005732 | 19 | 250 | 6.4 | 17.7 | 0.00 | 0.00 | 0.00 | 56 | 1016.3 |
| 20260508005233 | 20 | 263 | 4.8 | 14.5 | 0.00 | 0.00 | 0.00 | 55 | 1016.3 |
| 20260508004738 | 20 | 282 | 4.8 | 11.3 | 0.00 | 0.00 | 0.00 | 57 | 1016.2 |
| 20260508004732 | 20 | 227 | 3.2 | 14.5 | 0.00 | 0.00 | 0.00 | 56 | 1016.2 |
| 20260508004232 | 20 | 318 | 3.2 | 11.3 | 0.00 | 0.00 | 0.00 | 58 | 1016.2 |
| 20260508003232 | 20 | 286 | 4.8 | 14.5 | 0.00 | 0.00 | 0.00 | 55 | 1016.2 |
| 20260508002732 | 20 | 215 | 4.8 | 14.5 | 0.00 | 0.00 | 0.00 | 54 | 1016.3 |
| 20260508002232 | 21 | 247 | 3.2 | 14.5 | 0.00 | 0.00 | 0.00 | 56 | 1016.2 |
| 20260508001732 | 21 | 273 | 3.2 | 14.5 | 0.00 | 0.00 | 0.00 | 56 | 1016.3 |
| 20260508001232 | 21 | 282 | 3.2 | 11.3 | 0.00 | 0.00 | 0.00 | 55 | 1016.3 |
| 20260508000732 | 21 | 276 | 4.8 | 16.1 | 0.00 | 0.00 | 0.00 | 53 | 1016.4 |
| 20260508000238 | 21 | 237 | 6.4 | 19.3 | 0.00 | 0.00 | 0.00 | 56 | 1016.4 |
| 20260508000234 | 21 | 285 | 3.2 | 17.7 | 0.00 | 0.00 | 0.00 | 56 | 1016.3 |
| 20260507235730 | 21 | 229 | 3.2 | 17.7 | 0.00 | 0.00 | 0.00 | 55 | 1016.4 |
| 20260507234734 | 21 | 173 | 3.2 | 14.5 | 0.00 | 0.00 | 0.00 | 56 | 1016.1 |
| 20260507234730 | 21 | 286 | 6.4 | 19.3 | 0.00 | 0.00 | 0.00 | 57 | 1016.4 |
| 20260507234343 | 21 | 166 | 3.2 | 9.7 | 0.00 | 0.00 | 0.00 | 52 | 1016.3 |
| 20260507233843 | 22 | 202 | 1.6 | 9.7 | 0.00 | 0.00 | 0.00 | 53 | 1016.4 |
| 20260507232736 | 22 | 185 | 1.6 | 6.4 | 0.00 | 0.00 | 0.00 | 56 | 1016.6 |
| 20260507232730 | 22 | 153 | 1.6 | 6.4 | 0.00 | 0.00 | 0.00 | 53 | 1016.4 |
| 20260507232344 | 21 | 157 | 1.6 | 6.4 | 0.00 | 0.00 | 0.00 | 55 | 1016.7 |
| 20260507231844 | 21 | 53 | 1.6 | 6.4 | 0.00 | 0.00 | 0.00 | 54 | 1016.7 |
| 20260507230733 | 21 | 9 | 1.6 | 8.0 | 0.00 | 0.00 | 0.00 | 59 | 1016.9 |
| 20260507230728 | 21 | 80 | 1.6 | 6.4 | 0.00 | 0.00 | 0.00 | 54 | 1016.8 |
| 20260507225728 | 21 | 331 | 1.6 | 8.0 | 0.00 | 0.00 | 0.00 | 56 | 1017.0 |
| 20260507225229 | 21 | 302 | 1.6 | 6.4 | 0.00 | 0.00 | 0.00 | 56 | 1017.1 |
| 20260507224732 | 20 | 329 | 1.6 | 4.8 | 0.00 | 0.00 | 0.00 | 59 | 1017.3 |
| 20260507224727 | 20 | 255 | 1.6 | 4.8 | 0.00 | 0.00 | 0.00 | 57 | 1017.2 |
| 20260507223729 | 20 | 262 | 3.2 | 9.7 | 0.00 | 0.00 | 0.00 | 57 | 1017.3 |
| 20260507223724 | 20 | 54 | 3.2 | 9.7 | 0.00 | 0.00 | 0.00 | 59 | 1017.5 |
| 20260507222722 | 20 | 17 | 3.2 | 6.4 | 0.00 | 0.00 | 0.00 | 58 | 1017.5 |
| 20260507222222 | 20 | 29 | 3.2 | 6.4 | 0.00 | 0.00 | 0.00 | 56 | 1017.5 |
| 20260507221722 | 20 | 329 | 3.2 | 6.4 | 0.00 | 0.00 | 0.00 | 58 | 1017.6 |
| 20260507221221 | 20 | 219 | 3.2 | 9.7 | 0.00 | 0.00 | 0.00 | 55 | 1017.7 |
| 20260507220722 | 20 | 187 | 3.2 | 9.7 | 0.00 | 0.00 | 0.00 | 57 | 1017.7 |
| 20260507220223 | 19 | 172 | 3.2 | 9.7 | 0.00 | 0.00 | 0.00 | 61 | 1017.7 |
| 20260507215722 | 19 | 185 | 3.2 | 9.7 | 0.00 | 0.00 | 0.00 | 58 | 1017.8 |
| 20260507215221 | 19 | 168 | 1.6 | 6.4 | 0.00 | 0.00 | 0.00 | 56 | 1017.9 |
| 20260507214726 | 19 | 38 | 1.6 | 9.7 | 0.00 | 0.00 | 0.00 | 62 | 1018.1 |
| 20260507214722 | 20 | 165 | 1.6 | 6.4 | 0.00 | 0.00 | 0.00 | 59 | 1018.0 |
| 20260507213721 | 19 | 280 | 1.6 | 9.7 | 0.00 | 0.00 | 0.00 | 58 | 1018.1 |
| 20260507213226 | 19 | 65 | 3.2 | 11.3 | 0.00 | 0.00 | 0.00 | 62 | 1018.1 |
| 20260507213222 | 19 | 138 | 1.6 | 11.3 | 0.00 | 0.00 | 0.00 | 62 | 1018.2 |
| 20260507212221 | 19 | 331 | 1.6 | 9.7 | 0.00 | 0.00 | 0.00 | 60 | 1018.3 |
| 20260507211720 | 19 | 166 | 1.6 | 9.7 | 0.00 | 0.00 | 0.00 | 65 | 1018.2 |
| 20260507211221 | 18 | 132 | 3.2 | 12.9 | 0.00 | 0.00 | 0.00 | 65 | 1018.3 |
| 20260507210720 | 18 | 184 | 3.2 | 12.9 | 0.00 | 0.00 | 0.00 | 61 | 1018.4 |
| 20260507210222 | 18 | 0 | 3.2 | 11.3 | 0.00 | 0.00 | 0.00 | 62 | 1018.5 |
| 20260507210218 | 18 | 169 | 3.2 | 11.3 | 0.00 | 0.00 | 0.00 | 58 | 1018.4 |
| 20260507205219 | 18 | 166 | 4.8 | 11.3 | 0.00 | 0.00 | 0.00 | 61 | 1018.6 |
| 20260507204723 | 18 | 13 | 1.6 | 9.7 | 0.00 | 0.00 | 0.00 | 62 | 1018.7 |
| 20260507204717 | 18 | 180 | 3.2 | 9.7 | 0.00 | 0.00 | 0.00 | 61 | 1018.6 |
| 20260507203718 | 18 | 59 | 1.6 | 9.7 | 0.00 | 0.00 | 0.00 | 62 | 1018.7 |
| 20260507203218 | 18 | 59 | 3.2 | 11.3 | 0.00 | 0.00 | 0.00 | 63 | 1018.8 |
| 20260507202723 | 18 | 163 | 1.6 | 6.4 | 0.00 | 0.00 | 0.00 | 67 | 1018.9 |
| 20260507202717 | 18 | 16 | 3.2 | 11.3 | 0.00 | 0.00 | 0.00 | 63 | 1018.8 |
| 20260507201718 | 18 | 18 | 3.2 | 6.4 | 0.00 | 0.00 | 0.00 | 62 | 1018.9 |
| 20260507201221 | 17 | 62 | 1.6 | 8.0 | 0.00 | 0.00 | 0.00 | 65 | 1019.1 |
| 20260507201217 | 17 | 9 | 3.2 | 6.4 | 0.00 | 0.00 | 0.00 | 65 | 1019.0 |
| 20260507200217 | 17 | 277 | 1.6 | 8.0 | 0.00 | 0.00 | 0.00 | 61 | 1019.1 |
| 20260507195721 | 17 | 169 | 3.2 | 8.0 | 0.00 | 0.00 | 0.00 | 64 | 1019.2 |
| 20260507195716 | 17 | 178 | 3.2 | 11.3 | 0.00 | 0.00 | 0.00 | 65 | 1019.3 |
| 20260507195329 | 17 | 166 | 3.2 | 11.3 | 0.00 | 0.00 | 0.00 | 65 | 1019.3 |
| 20260507194216 | 17 | 326 | 3.2 | 8.0 | 0.00 | 0.00 | 0.00 | 67 | 1019.3 |
| 20260507193717 | 17 | 5 | 3.2 | 8.0 | 0.00 | 0.00 | 0.00 | 64 | 1019.4 |
| 20260507193214 | 17 | 340 | 4.8 | 11.3 | 0.00 | 0.00 | 0.00 | 68 | 1019.4 |
| 20260507192715 | 17 | 333 | 4.8 | 11.3 | 0.00 | 0.00 | 0.00 | 68 | 1019.4 |
| 20260507192213 | 17 | 25 | 1.6 | 9.7 | 0.00 | 0.00 | 0.00 | 64 | 1019.5 |
| 20260507191718 | 17 | 185 | 1.6 | 6.4 | 0.00 | 0.00 | 0.00 | 66 | 1019.6 |
| 20260507191714 | 17 | 112 | 1.6 | 9.7 | 0.00 | 0.00 | 0.00 | 70 | 1019.6 |
| 20260507190713 | 17 | 213 | 1.6 | 6.4 | 0.00 | 0.00 | 0.00 | 66 | 1019.7 |
| 20260507190212 | 16 | 46 | 3.2 | 6.4 | 0.00 | 0.00 | 0.00 | 64 | 1019.7 |
| 20260507185712 | 16 | 204 | 3.2 | 12.9 | 0.00 | 0.00 | 0.00 | 65 | 1019.7 |
| 20260507185216 | 16 | 5 | 3.2 | 12.9 | 0.00 | 0.00 | 0.00 | 68 | 1019.9 |
| 20260507185210 | 16 | 14 | 4.8 | 14.5 | 0.00 | 0.00 | 0.00 | 66 | 1019.9 |
| 20260507184208 | 16 | 5 | 6.4 | 14.5 | 0.00 | 0.00 | 0.00 | 69 | 1019.9 |
| 20260507183709 | 16 | 21 | 3.2 | 12.9 | 0.00 | 0.00 | 0.00 | 72 | 1019.8 |
| 20260507183207 | 16 | 291 | 1.6 | 6.4 | 0.00 | 0.00 | 0.00 | 69 | 1019.9 |
| 20260507182708 | 16 | 204 | 1.6 | 6.4 | 0.00 | 0.00 | 0.00 | 71 | 1019.9 |
| 20260507182207 | 15 | 248 | 1.6 | 4.8 | 0.00 | 0.00 | 0.00 | 72 | 1019.9 |
| 20260507181713 | 15 | 179 | 1.6 | 6.4 | 0.00 | 0.00 | 0.00 | 70 | 1020.1 |
| 20260507181708 | 15 | 245 | 1.6 | 6.4 | 0.00 | 0.00 | 0.00 | 69 | 1020.0 |
| 20260507180709 | 14 | 177 | 1.6 | 6.4 | 0.00 | 0.00 | 0.00 | 72 | 1020.1 |
| 20260507180212 | 14 | 30 | 1.6 | 4.8 | 0.00 | 0.00 | 0.00 | 72 | 1020.2 |
| 20260507180208 | 14 | 35 | 0.0 | 3.2 | 0.00 | 0.00 | 0.00 | 70 | 1020.1 |
| 20260507175206 | 14 | 31 | 1.6 | 4.8 | 0.00 | 0.00 | 0.00 | 74 | 1020.2 |
| 20260507174705 | 14 | 312 | 3.2 | 9.7 | 0.00 | 0.00 | 0.00 | 71 | 1020.3 |
| 20260507174205 | 15 | 11 | 4.8 | 9.7 | 0.00 | 0.00 | 0.00 | 72 | 1020.2 |
| 20260507173703 | 15 | 349 | 4.8 | 11.3 | 0.00 | 0.00 | 0.00 | 71 | 1020.3 |
| 20260507173203 | 15 | 329 | 4.8 | 11.3 | 0.00 | 0.00 | 0.00 | 72 | 1020.3 |
| 20260507172704 | 15 | 0 | 4.8 | 9.7 | 0.00 | 0.00 | 0.00 | 75 | 1020.4 |
| 20260507172204 | 14 | 10 | 3.2 | 8.0 | 0.00 | 0.00 | 0.00 | 77 | 1020.4 |
| 20260507171704 | 13 | 279 | 1.6 | 6.4 | 0.00 | 0.00 | 0.00 | 74 | 1020.4 |
| 20260507171207 | 13 | 323 | 0.0 | 3.2 | 0.00 | 0.00 | 0.00 | 78 | 1020.3 |
| 20260507171203 | 13 | 324 | 0.0 | 3.2 | 0.00 | 0.00 | 0.00 | 78 | 1020.4 |
| 20260507170205 | 13 | 322 | 0.0 | 3.2 | 0.00 | 0.00 | 0.00 | 79 | 1020.3 |
| 20260507165704 | 13 | 321 | 1.6 | 3.2 | 0.00 | 0.00 | 0.00 | 78 | 1020.3 |
| 20260507165203 | 13 | 314 | 1.6 | 3.2 | 0.00 | 0.00 | 0.00 | 76 | 1020.3 |
| 20260507164705 | 13 | 316 | 1.6 | 3.2 | 0.00 | 0.00 | 0.00 | 78 | 1020.4 |
| 20260507164204 | 13 | 9 | 1.6 | 4.8 | 0.00 | 0.00 | 0.00 | 79 | 1020.4 |
| 20260507163704 | 12 | 5 | 1.6 | 4.8 | 0.00 | 0.00 | 0.00 | 78 | 1020.4 |
| 20260507163203 | 12 | 9 | 1.6 | 4.8 | 0.00 | 0.00 | 0.00 | 79 | 1020.4 |
| 20260507162704 | 13 | 17 | 1.6 | 4.8 | 0.00 | 0.00 | 0.00 | 79 | 1020.4 |
| 20260507162203 | 13 | 241 | 1.6 | 3.2 | 0.00 | 0.00 | 0.00 | 79 | 1020.4 |
| 20260507161703 | 12 | 273 | 1.6 | 4.8 | 0.00 | 0.00 | 0.00 | 79 | 1020.4 |
| 20260507161203 | 12 | 275 | 1.6 | 4.8 | 0.00 | 0.00 | 0.00 | 79 | 1020.4 |
| 20260507160704 | 12 | 275 | 1.6 | 3.2 | 0.00 | 0.00 | 0.00 | 79 | 1020.4 |
| 20260507160205 | 12 | 188 | 0.0 | 3.2 | 0.00 | 0.00 | 0.00 | 80 | 1020.4 |
| 20260507155709 | 12 | 273 | 1.6 | 3.2 | 0.00 | 0.00 | 0.00 | 81 | 1020.5 |
| 20260507155704 | 12 | 273 | 0.0 | 3.2 | 0.00 | 0.00 | 0.00 | 81 | 1020.4 |
| 20260507154703 | 12 | 273 | 1.6 | 3.2 | 0.00 | 0.00 | 0.00 | 81 | 1020.4 |
| 20260507154204 | 12 | 258 | 1.6 | 3.2 | 0.00 | 0.00 | 0.00 | 82 | 1020.5 |
| 20260507153703 | 12 | 257 | 0.0 | 3.2 | 0.00 | 0.00 | 0.00 | 82 | 1020.6 |
| 20260507153203 | 12 | 257 | 0.0 | 3.2 | 0.00 | 0.00 | 0.00 | 81 | 1020.6 |
| 20260507152705 | 12 | 257 | 1.6 | 3.2 | 0.00 | 0.00 | 0.00 | 81 | 1020.6 |
| 20260507152205 | 11 | 257 | 1.6 | 3.2 | 0.00 | 0.00 | 0.00 | 82 | 1020.6 |
| 20260507151703 | 11 | 258 | 0.0 | 3.2 | 0.00 | 0.00 | 0.00 | 82 | 1020.6 |
| 20260507151204 | 11 | 255 | 1.6 | 4.8 | 0.00 | 0.00 | 0.00 | 83 | 1020.7 |
| 20260507150703 | 11 | 306 | 1.6 | 4.8 | 0.00 | 0.00 | 0.00 | 82 | 1020.6 |
| 20260507150203 | 11 | 261 | 1.6 | 4.8 | 0.00 | 0.00 | 0.00 | 83 | 1020.7 |
| 20260507145704 | 11 | 248 | 0.0 | 4.8 | 0.00 | 0.00 | 0.00 | 83 | 1020.7 |
| 20260507145202 | 11 | 250 | 1.6 | 3.2 | 0.00 | 0.00 | 0.00 | 84 | 1020.6 |
| 20260507144706 | 11 | 261 | 0.0 | 4.8 | 0.00 | 0.00 | 0.00 | 84 | 1020.6 |
| 20260507144702 | 11 | 261 | 1.6 | 3.2 | 0.00 | 0.00 | 0.00 | 83 | 1020.6 |
| 20260507143701 | 11 | 261 | 0.0 | 4.8 | 0.00 | 0.00 | 0.00 | 84 | 1020.6 |
| 20260507143206 | 11 | 262 | 1.6 | 3.2 | 0.00 | 0.00 | 0.00 | 84 | 1020.6 |
| 20260507143202 | 11 | 261 | 1.6 | 3.2 | 0.00 | 0.00 | 0.00 | 84 | 1020.6 |
| 20260507142814 | 11 | 239 | 1.6 | 3.2 | 0.00 | 0.00 | 0.00 | 85 | 1020.6 |
| 20260507141659 | 11 | 238 | 0.0 | 3.2 | 0.00 | 0.00 | 0.00 | 85 | 1020.5 |
| 20260507141201 | 11 | 244 | 0.0 | 3.2 | 0.00 | 0.00 | 0.00 | 85 | 1020.4 |
| 20260507140701 | 11 | 244 | 0.0 | 3.2 | 0.00 | 0.00 | 0.00 | 85 | 1020.5 |
| 20260507140159 | 11 | 244 | 0.0 | 3.2 | 0.00 | 0.00 | 0.00 | 85 | 1020.4 |
| 20260507135659 | 11 | 244 | 0.0 | 3.2 | 0.00 | 0.00 | 0.00 | 85 | 1020.4 |
| 20260507135203 | 11 | 242 | 0.0 | 4.8 | 0.00 | 0.00 | 0.00 | 85 | 1020.3 |
| 20260507135158 | 10 | 240 | 0.0 | 4.8 | 0.00 | 0.00 | 0.00 | 85 | 1020.3 |
| 20260507134158 | 10 | 234 | 1.6 | 4.8 | 0.00 | 0.00 | 0.00 | 85 | 1020.2 |
| 20260507133658 | 10 | 235 | 1.6 | 4.8 | 0.00 | 0.00 | 0.00 | 84 | 1020.3 |
| 20260507133157 | 10 | 248 | 0.0 | 3.2 | 0.00 | 0.00 | 0.00 | 85 | 1020.2 |
| 20260507132657 | 10 | 249 | 1.6 | 4.8 | 0.00 | 0.00 | 0.00 | 85 | 1020.2 |
| 20260507132155 | 10 | 238 | 1.6 | 4.8 | 0.00 | 0.00 | 0.00 | 85 | 1020.2 |
| 20260507131655 | 10 | 232 | 1.6 | 4.8 | 0.00 | 0.00 | 0.00 | 85 | 1020.3 |
| 20260507131155 | 10 | 229 | 1.6 | 4.8 | 0.00 | 0.00 | 0.00 | 85 | 1020.3 |
| 20260507130659 | 10 | 222 | 1.6 | 4.8 | 0.00 | 0.00 | 0.00 | 85 | 1020.3 |
| 20260507130655 | 10 | 239 | 1.6 | 4.8 | 0.00 | 0.00 | 0.00 | 85 | 1020.3 |
| 20260507125655 | 10 | 226 | 0.0 | 3.2 | 0.00 | 0.00 | 0.00 | 85 | 1020.3 |
| 20260507125154 | 10 | 225 | 0.0 | 3.2 | 0.00 | 0.00 | 0.00 | 85 | 1020.3 |
| 20260507124654 | 11 | 222 | 1.6 | 4.8 | 0.00 | 0.00 | 0.00 | 85 | 1020.4 |
| 20260507124153 | 11 | 221 | 1.6 | 4.8 | 0.00 | 0.00 | 0.00 | 84 | 1020.3 |
| 20260507123657 | 11 | 225 | 0.0 | 3.2 | 0.00 | 0.00 | 0.00 | 85 | 1020.4 |
| 20260507123653 | 11 | 225 | 0.0 | 0.0 | 0.00 | 0.00 | 0.00 | 85 | 1020.4 |
| 20260507122653 | 11 | 222 | 1.6 | 3.2 | 0.00 | 0.00 | 0.00 | 84 | 1020.4 |
| 20260507122154 | 11 | 221 | 1.6 | 4.8 | 0.00 | 0.00 | 0.00 | 85 | 1020.4 |
| 20260507121653 | 11 | 224 | 1.6 | 4.8 | 0.00 | 0.00 | 0.00 | 84 | 1020.5 |
| 20260507121156 | 11 | 224 | 1.6 | 6.4 | 0.00 | 0.00 | 0.00 | 84 | 1020.5 |
| 20260507121152 | 11 | 250 | 1.6 | 6.4 | 0.00 | 0.00 | 0.00 | 84 | 1020.5 |
| 20260507120157 | 11 | 226 | 1.6 | 6.4 | 0.00 | 0.00 | 0.00 | 85 | 1020.6 |
| 20260507120153 | 11 | 235 | 3.2 | 4.8 | 0.00 | 0.00 | 0.00 | 84 | 1020.5 |
| 20260507115652 | 11 | 215 | 3.2 | 6.4 | 0.00 | 0.00 | 0.00 | 85 | 1020.5 |
| 20260507114652 | 11 | 238 | 0.0 | 4.8 | 0.00 | 0.00 | 0.00 | 85 | 1020.7 |
| 20260507114152 | 11 | 251 | 0.0 | 3.2 | 0.00 | 0.00 | 0.00 | 85 | 1020.7 |
| 20260507113651 | 11 | 251 | 0.0 | 3.2 | 0.00 | 0.00 | 0.00 | 85 | 1020.7 |
| 20260507113153 | 11 | 251 | 0.0 | 3.2 | 0.00 | 0.00 | 0.00 | 85 | 1020.7 |
| 20260507112652 | 11 | 251 | 0.0 | 3.2 | 0.00 | 0.00 | 0.00 | 85 | 1020.8 |
| 20260507112150 | 11 | 238 | 0.0 | 3.2 | 0.00 | 0.00 | 0.00 | 85 | 1020.8 |
| 20260507111651 | 11 | 237 | 0.0 | 4.8 | 0.00 | 0.00 | 0.00 | 85 | 1020.8 |
| 20260507111150 | 11 | 237 | 1.6 | 4.8 | 0.00 | 0.00 | 0.00 | 85 | 1020.8 |
| 20260507110650 | 11 | 223 | 1.6 | 4.8 | 0.00 | 0.00 | 0.00 | 85 | 1020.8 |
| 20260507110150 | 11 | 223 | 1.6 | 4.8 | 0.00 | 0.00 | 0.00 | 85 | 1020.8 |
| 20260507105654 | 11 | 277 | 1.6 | 4.8 | 0.00 | 0.00 | 0.00 | 85 | 1020.9 |
| 20260507105649 | 11 | 222 | 1.6 | 4.8 | 0.00 | 0.00 | 0.00 | 85 | 1020.9 |
| 20260507104650 | 11 | 259 | 1.6 | 4.8 | 0.00 | 0.00 | 0.00 | 85 | 1020.9 |
| 20260507104149 | 11 | 266 | 1.6 | 8.0 | 0.00 | 0.00 | 0.00 | 85 | 1020.9 |
| 20260507103654 | 11 | 250 | 0.0 | 4.8 | 0.00 | 0.00 | 0.00 | 85 | 1021.0 |
| 20260507103648 | 11 | 241 | 1.6 | 8.0 | 0.00 | 0.00 | 0.00 | 85 | 1020.9 |
| 20260507102647 | 11 | 252 | 0.0 | 4.8 | 0.00 | 0.00 | 0.00 | 85 | 1021.0 |
| 20260507102152 | 11 | 235 | 1.6 | 4.8 | 0.00 | 0.00 | 0.00 | 84 | 1021.0 |
| 20260507102147 | 11 | 252 | 1.6 | 4.8 | 0.00 | 0.00 | 0.00 | 85 | 1021.0 |
| 20260507101647 | 11 | 242 | 1.6 | 4.8 | 0.00 | 0.00 | 0.00 | 85 | 1021.0 |
| 20260507100653 | 11 | 257 | 1.6 | 4.8 | 0.00 | 0.00 | 0.00 | 84 | 1021.0 |
| 20260507100647 | 11 | 251 | 1.6 | 4.8 | 0.00 | 0.00 | 0.00 | 84 | 1021.0 |
| 20260507095648 | 11 | 252 | 1.6 | 4.8 | 0.00 | 0.00 | 0.00 | 84 | 1021.1 |
| 20260507095150 | 11 | 252 | 1.6 | 4.8 | 0.00 | 0.00 | 0.00 | 84 | 1021.2 |
| 20260507095145 | 11 | 244 | 1.6 | 4.8 | 0.00 | 0.00 | 0.00 | 84 | 1021.1 |
| 20260507094145 | 11 | 261 | 1.6 | 4.8 | 0.00 | 0.00 | 0.00 | 84 | 1021.2 |
| 20260507093645 | 11 | 257 | 0.0 | 4.8 | 0.00 | 0.00 | 0.00 | 84 | 1021.3 |
| 20260507093146 | 11 | 247 | 0.0 | 1.6 | 0.00 | 0.00 | 0.00 | 84 | 1021.3 |
| 20260507092644 | 11 | 247 | 0.0 | 3.2 | 0.00 | 0.00 | 0.00 | 84 | 1021.3 |
| 20260507092144 | 11 | 247 | 0.0 | 3.2 | 0.00 | 0.00 | 0.00 | 84 | 1021.4 |
| 20260507091644 | 11 | 245 | 1.6 | 3.2 | 0.00 | 0.00 | 0.00 | 83 | 1021.4 |
| 20260507091144 | 11 | 256 | 1.6 | 4.8 | 0.00 | 0.00 | 0.00 | 83 | 1021.4 |
| 20260507090645 | 11 | 226 | 1.6 | 6.4 | 0.00 | 0.00 | 0.00 | 83 | 1021.5 |
| 20260507090149 | 11 | 259 | 1.6 | 6.4 | 0.00 | 0.00 | 0.00 | 83 | 1021.6 |
| 20260507090144 | 11 | 248 | 1.6 | 6.4 | 0.00 | 0.00 | 0.00 | 83 | 1021.5 |
| 20260507085144 | 11 | 250 | 1.6 | 6.4 | 0.00 | 0.00 | 0.00 | 83 | 1021.5 |
| 20260507084642 | 11 | 277 | 0.0 | 4.8 | 0.00 | 0.00 | 0.00 | 83 | 1021.5 |
| 20260507084145 | 11 | 263 | 1.6 | 4.8 | 0.00 | 0.00 | 0.00 | 83 | 1021.5 |
| 20260507084141 | 11 | 270 | 1.6 | 4.8 | 0.00 | 0.00 | 0.00 | 83 | 1021.5 |
| 20260507083143 | 11 | 254 | 1.6 | 4.8 | 0.00 | 0.00 | 0.00 | 83 | 1021.5 |
| 20260507083138 | 11 | 259 | 1.6 | 4.8 | 0.00 | 0.00 | 0.00 | 83 | 1021.6 |
| 20260507082143 | 11 | 264 | 1.6 | 4.8 | 0.00 | 0.00 | 0.00 | 83 | 1021.4 |
| 20260507082139 | 11 | 250 | 1.6 | 4.8 | 0.00 | 0.00 | 0.00 | 83 | 1021.4 |
| 20260507081752 | 11 | 264 | 0.0 | 6.4 | 0.00 | 0.00 | 0.00 | 83 | 1021.4 |
| 20260507081139 | 11 | 244 | 1.6 | 6.4 | 0.00 | 0.00 | 0.00 | 83 | 1021.4 |
| 20260507080637 | 11 | 254 | 1.6 | 4.8 | 0.00 | 0.00 | 0.00 | 83 | 1021.4 |
| 20260507075636 | 11 | 260 | 1.6 | 6.4 | 0.00 | 0.00 | 0.00 | 84 | 1021.4 |
| 20260507075136 | 11 | 241 | 1.6 | 6.4 | 0.00 | 0.00 | 0.00 | 83 | 1021.4 |
| 20260507074637 | 11 | 259 | 1.6 | 6.4 | 0.00 | 0.00 | 0.00 | 83 | 1021.4 |
| 20260507074138 | 11 | 257 | 1.6 | 6.4 | 0.00 | 0.00 | 0.00 | 83 | 1021.4 |
| 20260507073637 | 11 | 247 | 1.6 | 6.4 | 0.00 | 0.00 | 0.00 | 83 | 1021.5 |
| 20260507073137 | 11 | 265 | 1.6 | 9.7 | 0.00 | 0.00 | 0.00 | 83 | 1021.4 |
| 20260507072638 | 11 | 251 | 1.6 | 9.7 | 0.00 | 0.00 | 0.00 | 83 | 1021.4 |
| 20260507072142 | 11 | 269 | 1.6 | 8.0 | 0.00 | 0.00 | 0.00 | 83 | 1021.5 |
| 20260507072137 | 11 | 214 | 1.6 | 9.7 | 0.00 | 0.00 | 0.00 | 83 | 1021.5 |
| 20260507071142 | 11 | 232 | 1.6 | 8.0 | 0.00 | 0.00 | 0.00 | 83 | 1021.4 |
| 20260507071138 | 11 | 254 | 1.6 | 8.0 | 0.00 | 0.00 | 0.00 | 83 | 1021.4 |
| 20260507070137 | 11 | 213 | 1.6 | 6.4 | 0.00 | 0.00 | 0.00 | 83 | 1021.5 |
| 20260507065639 | 11 | 276 | 1.6 | 6.4 | 0.00 | 0.00 | 0.00 | 83 | 1021.5 |
| 20260507065142 | 11 | 273 | 3.2 | 9.7 | 0.00 | 0.00 | 0.00 | 83 | 1021.4 |
| 20260507065137 | 11 | 226 | 1.6 | 8.0 | 0.00 | 0.00 | 0.00 | 83 | 1021.4 |
| 20260507064139 | 11 | 257 | 3.2 | 9.7 | 0.00 | 0.00 | 0.00 | 83 | 1021.4 |
| 20260507063637 | 11 | 232 | 3.2 | 8.0 | 0.00 | 0.00 | 0.00 | 83 | 1021.4 |
| 20260507063138 | 11 | 247 | 3.2 | 12.9 | 0.00 | 0.00 | 0.00 | 83 | 1021.5 |
| 20260507062637 | 11 | 262 | 3.2 | 12.9 | 0.00 | 0.00 | 0.00 | 83 | 1021.5 |
| 20260507062138 | 11 | 240 | 1.6 | 6.4 | 0.00 | 0.00 | 0.00 | 83 | 1021.5 |
| 20260507061635 | 11 | 259 | 1.6 | 9.7 | 0.00 | 0.00 | 0.00 | 83 | 1021.5 |
| 20260507061135 | 11 | 219 | 1.6 | 9.7 | 0.00 | 0.00 | 0.00 | 83 | 1021.5 |
| 20260507060636 | 11 | 250 | 1.6 | 8.0 | 0.00 | 0.00 | 0.00 | 83 | 1021.5 |